createdAt,value
2023-05-14T00:00:11.893Z,7.50
2023-05-14T00:04:33.865Z,8.67
2023-05-14T00:08:55.646Z,8.57
2023-05-14T00:13:18.933Z,12.80
2023-05-14T00:17:40.779Z,11.77
2023-05-14T00:22:02.525Z,9.93
2023-05-14T00:26:24.347Z,9.20
2023-05-14T00:30:47.471Z,12.47
2023-05-14T00:35:09.755Z,10.50
2023-05-14T00:39:31.511Z,11.90
2023-05-14T00:43:53.223Z,11.70
2023-05-14T00:48:16.803Z,10.37
2023-05-14T00:52:39.022Z,10.90
2023-05-14T00:57:01.043Z,13.40
2023-05-14T01:01:22.978Z,11.47
2023-05-14T01:05:56.065Z,11.67
2023-05-14T01:10:28.706Z,13.07
2023-05-14T01:14:56.729Z,12.27
2023-05-14T01:19:26.133Z,12.93
2023-05-14T01:23:49.429Z,12.73
2023-05-14T01:28:15.466Z,15.10
2023-05-14T01:32:39.602Z,15.40
2023-05-14T01:37:02.651Z,13.00
2023-05-14T01:41:26.376Z,12.47
2023-05-14T01:45:48.351Z,18.20
2023-05-14T01:50:11.087Z,13.77
2023-05-14T01:54:32.805Z,14.63
2023-05-14T01:58:55.885Z,12.53
2023-05-14T02:03:17.605Z,15.40
2023-05-14T02:07:39.621Z,14.27
2023-05-14T02:12:01.360Z,14.17
2023-05-14T02:16:26.794Z,13.00
2023-05-14T02:20:48.600Z,14.20
2023-05-14T02:25:10.700Z,14.30
2023-05-14T02:29:32.555Z,13.97
2023-05-14T02:33:55.665Z,12.07
2023-05-14T02:38:17.605Z,15.77
2023-05-14T02:42:39.464Z,13.73
2023-05-14T02:47:01.354Z,14.63
2023-05-14T02:51:24.433Z,14.47
2023-05-14T02:55:46.165Z,17.53
2023-05-14T03:00:09.076Z,14.67
2023-05-14T03:04:31.505Z,17.60
2023-05-14T03:08:54.552Z,16.60
2023-05-14T03:13:16.341Z,15.47
2023-05-14T03:17:38.068Z,14.90
2023-05-14T03:22:00.162Z,15.27
2023-05-14T03:26:23.248Z,17.50
2023-05-14T03:30:45.057Z,15.83
2023-05-14T03:35:07.857Z,15.57
2023-05-14T03:39:29.646Z,17.83
2023-05-14T03:43:52.751Z,17.07
2023-05-14T03:48:14.567Z,16.27
2023-05-14T03:52:36.406Z,13.57
2023-05-14T03:56:58.156Z,20.63
2023-05-14T04:01:21.348Z,14.70
2023-05-14T04:05:43.223Z,11.90
2023-05-14T04:10:06.147Z,15.23
2023-05-14T04:14:27.993Z,13.53
2023-05-14T04:18:51.557Z,15.57
2023-05-14T04:23:13.340Z,14.43
2023-05-14T04:27:35.654Z,15.50
2023-05-14T04:31:57.466Z,14.43
2023-05-14T04:36:20.621Z,15.50
2023-05-14T04:40:42.401Z,16.33
2023-05-14T04:45:04.905Z,16.53
2023-05-14T04:49:26.860Z,14.97
2023-05-14T04:53:49.966Z,15.73
2023-05-14T04:58:11.709Z,14.33
2023-05-14T05:02:33.475Z,15.13
2023-05-14T05:06:55.305Z,13.67
2023-05-14T05:11:18.440Z,11.77
2023-05-14T05:15:40.230Z,12.43
2023-05-14T05:20:02.344Z,12.63
2023-05-14T05:24:24.161Z,13.20
2023-05-14T05:28:47.217Z,11.70
2023-05-14T05:33:09.090Z,9.47
2023-05-14T05:37:30.970Z,9.53
2023-05-14T05:41:54.147Z,8.70
2023-05-14T05:46:17.240Z,13.60
2023-05-14T05:50:39.033Z,10.30
2023-05-14T05:55:00.765Z,9.37
2023-05-14T05:59:22.558Z,11.90
2023-05-14T06:03:48.225Z,7.97
2023-05-14T06:08:10.698Z,8.60
2023-05-14T06:12:32.489Z,8.83
2023-05-14T06:16:54.299Z,9.80
2023-05-14T06:21:17.479Z,9.97
2023-05-14T06:25:39.226Z,9.97
2023-05-14T06:30:00.989Z,7.70
2023-05-14T06:34:22.844Z,10.50
2023-05-14T06:38:46.204Z,10.13
2023-05-14T06:43:07.919Z,12.33
2023-05-14T06:47:29.711Z,9.00
2023-05-14T06:51:51.526Z,12.17
2023-05-14T06:56:14.891Z,12.03
2023-05-14T07:00:36.716Z,12.47
2023-05-14T07:04:58.522Z,11.10
2023-05-14T07:09:20.289Z,12.00
2023-05-14T07:13:43.383Z,12.90
2023-05-14T07:18:05.278Z,12.47
2023-05-14T07:22:27.072Z,13.43
2023-05-14T07:26:48.969Z,9.90
2023-05-14T07:31:12.161Z,11.13
2023-05-14T07:35:34.165Z,9.07
2023-05-14T07:39:55.903Z,14.50
2023-05-14T07:44:17.735Z,11.23
2023-05-14T07:48:40.887Z,9.07
2023-05-14T07:53:02.733Z,11.75
2023-05-14T07:57:24.458Z,8.65
2023-05-14T08:01:46.204Z,12.32
2023-05-14T08:06:09.319Z,10.88
2023-05-14T08:10:31.104Z,10.30
2023-05-14T08:14:53.034Z,10.98
2023-05-14T08:19:15.984Z,8.85
2023-05-14T08:23:39.059Z,11.13
2023-05-14T08:28:00.809Z,11.55
2023-05-14T08:32:23.728Z,9.70
2023-05-14T08:36:45.952Z,9.83
2023-05-14T08:41:10.038Z,8.23
2023-05-14T08:45:33.289Z,8.07
2023-05-14T08:50:00.842Z,10.57
2023-05-14T08:54:23.288Z,8.43
2023-05-14T08:58:46.371Z,10.07
2023-05-14T09:03:08.480Z,7.33
2023-05-14T09:07:30.410Z,7.50
2023-05-14T09:11:53.677Z,8.83
2023-05-14T09:16:18.766Z,8.53
2023-05-14T09:20:40.996Z,7.40
2023-05-14T09:25:04.785Z,8.00
2023-05-14T09:29:29.020Z,9.80
2023-05-14T09:33:52.790Z,8.23
2023-05-14T09:38:14.735Z,8.70
2023-05-14T09:42:36.481Z,10.80
2023-05-14T09:46:58.406Z,8.17
2023-05-14T09:51:21.547Z,5.60
2023-05-14T09:55:43.331Z,7.40
2023-05-14T10:00:06.267Z,5.37
2023-05-14T10:04:28.169Z,5.07
2023-05-14T10:08:55.567Z,3.90
2023-05-14T10:13:22.030Z,5.03
2023-05-14T10:17:49.048Z,5.73
2023-05-14T10:22:14.855Z,5.43
2023-05-14T10:26:40.386Z,5.77
2023-05-14T10:31:02.299Z,8.73
2023-05-14T10:35:24.156Z,9.20
2023-05-14T10:39:47.414Z,8.23
2023-05-14T10:44:11.490Z,5.70
2023-05-14T10:48:34.181Z,6.10
2023-05-14T10:52:56.147Z,5.73
2023-05-14T10:57:19.111Z,5.87
2023-05-14T11:01:42.905Z,8.13
2023-05-14T11:06:06.177Z,4.57
2023-05-14T11:10:27.988Z,7.87
2023-05-14T11:14:50.653Z,7.70
2023-05-14T11:19:13.913Z,7.33
2023-05-14T11:23:35.979Z,5.83
2023-05-14T11:27:58.125Z,5.73
2023-05-14T11:32:20.393Z,6.30
2023-05-14T11:36:43.569Z,11.05
2023-05-14T11:41:05.370Z,10.90
2023-05-14T11:45:27.733Z,8.90
2023-05-14T11:49:49.742Z,10.80
2023-05-14T11:54:13.841Z,8.07
2023-05-14T11:58:35.597Z,10.20
2023-05-14T12:02:57.440Z,13.05
2023-05-14T12:07:19.554Z,7.85
2023-05-14T12:11:42.655Z,6.32
2023-05-14T12:16:04.900Z,12.20
2023-05-14T12:20:29.390Z,6.80
2023-05-14T12:24:54.570Z,6.22
2023-05-14T12:29:17.720Z,6.38
2023-05-14T12:33:39.444Z,4.65
2023-05-14T12:38:01.190Z,4.85
2023-05-14T12:42:22.938Z,5.43
2023-05-14T12:46:46.042Z,6.07
2023-05-14T12:51:07.863Z,4.25
2023-05-14T12:55:29.723Z,7.22
2023-05-14T12:59:51.501Z,6.43
2023-05-14T13:04:14.684Z,8.93
2023-05-14T13:08:36.490Z,6.30
2023-05-14T13:12:58.248Z,5.05
2023-05-14T13:17:20.018Z,7.03
2023-05-14T13:21:43.121Z,4.70
2023-05-14T13:26:04.922Z,6.28
2023-05-14T13:30:26.766Z,4.55
2023-05-14T13:34:48.570Z,7.78
2023-05-14T13:39:12.693Z,7.38
2023-05-14T13:43:35.940Z,6.28
2023-05-14T13:47:57.698Z,8.77
2023-05-14T13:52:19.565Z,7.93
2023-05-14T13:56:42.631Z,4.00
2023-05-14T14:01:05.538Z,5.47
2023-05-14T14:05:27.526Z,6.32
2023-05-14T14:09:49.376Z,5.78
2023-05-14T14:14:12.633Z,5.05
2023-05-14T14:18:34.433Z,6.68
2023-05-14T14:22:56.386Z,6.32
2023-05-14T14:27:19.128Z,5.22
2023-05-14T14:31:42.238Z,4.72
2023-05-14T14:36:04.633Z,4.93
2023-05-14T14:40:26.442Z,6.20
2023-05-14T14:44:48.178Z,4.72
2023-05-14T14:49:11.337Z,4.78
2023-05-14T14:58:24.489Z,5.30
2023-05-14T15:04:28.119Z,4.03
2023-05-14T15:08:29.545Z,3.33
2023-05-14T15:12:30.997Z,6.27
2023-05-14T15:16:32.455Z,9.50
2023-05-14T15:20:35.256Z,3.70
2023-05-14T15:24:36.732Z,5.27
2023-05-14T15:28:38.189Z,5.33
2023-05-14T15:32:39.714Z,7.17
2023-05-14T15:36:42.472Z,4.97
2023-05-14T15:40:43.895Z,2.90
2023-05-14T15:44:45.302Z,3.97
2023-05-14T15:48:46.705Z,6.77
2023-05-14T15:52:49.570Z,3.97
2023-05-14T15:56:51.002Z,4.47
2023-05-14T16:00:52.386Z,5.00
2023-05-14T16:04:53.792Z,4.50
2023-05-14T16:08:56.568Z,6.40
2023-05-14T16:12:57.935Z,3.63
2023-05-14T16:16:59.386Z,7.33
2023-05-14T16:21:00.758Z,3.77
2023-05-14T16:25:03.966Z,2.63
2023-05-14T16:29:05.548Z,5.67
2023-05-14T16:33:07.120Z,2.70
2023-05-14T16:37:09.650Z,3.63
2023-05-14T16:41:13.597Z,4.30
2023-05-14T16:45:15.125Z,7.70
2023-05-14T16:49:16.535Z,5.07
2023-05-14T16:53:17.934Z,4.50
2023-05-14T16:57:20.656Z,5.30
2023-05-14T17:01:22.159Z,3.53
2023-05-14T17:05:23.857Z,4.80
2023-05-14T17:09:25.419Z,2.83
2023-05-14T17:13:28.152Z,3.53
2023-05-14T17:17:29.593Z,4.07
2023-05-14T17:21:31.041Z,2.43
2023-05-14T17:25:32.489Z,4.33
2023-05-14T17:29:35.231Z,4.00
2023-05-14T17:33:36.640Z,5.30
2023-05-14T17:37:38.098Z,3.37
2023-05-14T17:41:39.695Z,4.90
2023-05-14T17:45:52.954Z,2.67
2023-05-14T17:49:55.618Z,5.57
2023-05-14T17:53:57.083Z,5.20
2023-05-14T17:57:58.721Z,4.53
2023-05-14T18:02:01.458Z,3.13
2023-05-14T18:06:03.292Z,2.87
2023-05-14T18:10:05.815Z,6.43
2023-05-14T18:14:07.279Z,3.93
2023-05-14T18:18:10.354Z,3.47
2023-05-14T18:22:11.883Z,6.93
2023-05-14T18:26:13.328Z,5.80
2023-05-14T18:30:15.627Z,3.70
2023-05-14T18:34:18.415Z,5.80
2023-05-14T18:38:19.770Z,3.00
2023-05-14T18:42:21.164Z,4.90
2023-05-14T18:46:22.646Z,4.10
2023-05-14T18:50:25.481Z,4.97
2023-05-14T18:54:26.919Z,5.23
2023-05-14T18:58:28.301Z,3.60
2023-05-14T19:02:29.943Z,3.87
2023-05-14T19:06:32.781Z,3.37
2023-05-14T19:10:34.205Z,8.30
2023-05-14T19:14:35.572Z,4.67
2023-05-14T19:18:37.177Z,5.73
2023-05-14T19:22:39.978Z,4.90
2023-05-14T19:26:41.576Z,4.83
2023-05-14T19:30:42.979Z,7.20
2023-05-14T19:34:44.371Z,4.83
2023-05-14T19:38:47.521Z,8.87
2023-05-14T19:42:48.945Z,7.77
2023-05-14T19:46:50.993Z,28.67
2023-05-14T19:50:52.633Z,6.67
2023-05-14T19:54:55.428Z,7.00
2023-05-14T19:58:57.533Z,10.27
2023-05-14T20:02:59.284Z,10.77
2023-05-14T20:07:00.989Z,10.80
2023-05-14T20:11:03.973Z,7.27
2023-05-14T20:15:06.146Z,6.33
2023-05-14T20:19:07.736Z,4.27
2023-05-14T20:23:09.271Z,5.77
2023-05-14T20:27:12.370Z,5.10
2023-05-14T20:31:13.866Z,5.07
2023-05-14T20:35:15.392Z,4.50
2023-05-14T20:39:17.269Z,4.70
2023-05-14T20:43:20.087Z,5.03
2023-05-14T20:47:24.656Z,4.43
2023-05-14T20:51:26.357Z,7.47
2023-05-14T20:55:28.167Z,6.17
2023-05-14T20:59:31.120Z,5.30
2023-05-14T21:03:32.664Z,6.00
2023-05-14T21:07:34.361Z,6.20
2023-05-14T21:11:35.862Z,6.87
2023-05-14T21:15:38.836Z,5.73
2023-05-14T21:19:40.292Z,5.87
2023-05-14T21:23:41.850Z,6.43
2023-05-14T21:27:43.453Z,5.90
2023-05-14T21:31:46.504Z,5.13
2023-05-14T21:35:48.011Z,11.03
2023-05-14T21:39:49.504Z,7.70
2023-05-14T21:43:51.003Z,5.73
2023-05-14T21:47:53.945Z,6.87
2023-05-14T21:51:55.374Z,4.63
2023-05-14T21:55:56.992Z,4.70
2023-05-14T21:59:58.495Z,4.90
2023-05-14T22:04:01.263Z,4.80
2023-05-14T22:08:02.743Z,4.67
2023-05-14T22:12:04.848Z,4.80
2023-05-14T22:16:12.578Z,4.77
2023-05-14T22:20:16.664Z,4.93
2023-05-14T22:24:18.319Z,7.13
2023-05-14T22:28:19.998Z,4.97
2023-05-14T22:32:21.469Z,5.60
2023-05-14T22:36:24.242Z,4.87
2023-05-14T22:40:25.664Z,7.50
2023-05-14T22:44:29.646Z,5.10
2023-05-14T22:48:31.383Z,6.73
2023-05-14T22:52:34.158Z,7.07
2023-05-14T22:56:35.754Z,6.13
2023-05-14T23:00:37.318Z,8.30
2023-05-14T23:04:38.864Z,7.23
2023-05-14T23:08:41.736Z,10.30
2023-05-14T23:12:43.143Z,7.23
2023-05-14T23:16:44.726Z,7.87
2023-05-14T23:20:46.182Z,9.67
2023-05-14T23:24:49.065Z,12.67
2023-05-14T23:28:50.486Z,9.90
2023-05-14T23:32:52.096Z,10.17
2023-05-14T23:36:53.942Z,10.90
2023-05-14T23:40:56.678Z,9.23
2023-05-14T23:44:58.178Z,10.33
2023-05-14T23:48:59.779Z,8.40
2023-05-14T23:53:01.430Z,9.67
2023-05-14T23:57:04.640Z,11.57
